Time,TemperatureF,DewpointF,PressureIn,WindDirection,WindDirectionDegrees,WindSpeedMPH,WindSpeedGustMPH,Humidity,HourlyPrecipIn,Conditions,Clouds,dailyrainin,SolarRadiationWatts/m^2,SoftwareType,DateUTC
2014-01-15 00:06:00,45.8,44.0,30.55,South,171,3.0,8.0,94,0.00,,,0.00,0,weatherlink.com 1.10,2014-01-15 08:06:00,
2014-01-15 00:22:00,45.7,44.0,30.55,SSE,161,3.0,9.0,94,0.00,,,0.00,0,weatherlink.com 1.10,2014-01-15 08:22:00,
2014-01-15 00:37:00,45.6,44.0,30.55,SSE,163,4.0,9.0,94,0.00,,,0.00,0,weatherlink.com 1.10,2014-01-15 08:37:00,
2014-01-15 00:52:00,45.6,44.0,30.55,SSE,158,7.0,9.0,94,0.00,,,0.00,0,weatherlink.com 1.10,2014-01-15 08:52:00,
2014-01-15 01:07:00,45.7,44.0,30.56,South,178,4.0,9.0,94,0.00,,,0.00,0,weatherlink.com 1.10,2014-01-15 09:07:00,
2014-01-15 01:22:00,45.8,44.0,30.56,SSE,165,3.0,6.0,94,0.00,,,0.00,0,weatherlink.com 1.10,2014-01-15 09:22:00,
2014-01-15 01:37:00,45.8,44.0,30.57,South,175,2.0,6.0,94,0.00,,,0.00,0,weatherlink.com 1.10,2014-01-15 09:37:00,
2014-01-15 01:52:00,46.0,44.0,30.57,South,184,8.0,10.0,94,0.00,,,0.00,0,weatherlink.com 1.10,2014-01-15 09:52:00,
2014-01-15 02:07:00,45.8,44.0,30.57,SSW,194,4.0,10.0,94,0.00,,,0.00,0,weatherlink.com 1.10,2014-01-15 10:07:00,
2014-01-15 02:22:00,45.6,44.0,30.58,SSW,192,7.0,7.0,94,0.00,,,0.00,0,weatherlink.com 1.10,2014-01-15 10:22:00,
2014-01-15 02:37:00,45.5,44.0,30.57,SSW,194,6.0,7.0,94,0.00,,,0.00,0,weatherlink.com 1.10,2014-01-15 10:37:00,
2014-01-15 02:52:00,45.5,44.0,30.58,South,184,2.0,7.0,95,0.00,,,0.00,0,weatherlink.com 1.10,2014-01-15 10:52:00,
2014-01-15 03:07:00,45.3,44.0,30.58,South,169,2.0,7.0,95,0.00,,,0.00,0,weatherlink.com 1.10,2014-01-15 11:07:00,
2014-01-15 03:22:00,45.2,44.0,30.57,South,175,3.0,7.0,95,0.00,,,0.00,0,weatherlink.com 1.10,2014-01-15 11:22:00,
2014-01-15 03:37:00,45.1,44.0,30.57,SSW,198,4.0,7.0,95,0.00,,,0.00,0,weatherlink.com 1.10,2014-01-15 11:37:00,
2014-01-15 03:52:00,44.8,44.0,30.57,SSW,195,4.0,7.0,95,0.00,,,0.00,0,weatherlink.com 1.10,2014-01-15 11:52:00,
2014-01-15 04:07:00,44.4,43.0,30.55,SSW,200,7.0,7.0,95,0.00,,,0.00,0,weatherlink.com 1.10,2014-01-15 12:07:00,
2014-01-15 04:22:00,44.2,43.0,30.55,SSW,198,5.0,10.0,95,0.00,,,0.00,0,weatherlink.com 1.10,2014-01-15 12:22:00,
2014-01-15 04:37:00,44.4,43.0,30.54,SW,221,4.0,8.0,95,0.00,,,0.00,0,weatherlink.com 1.10,2014-01-15 12:37:00,
2014-01-15 04:52:00,44.2,43.0,30.54,SW,221,6.0,10.0,95,0.00,,,0.00,0,weatherlink.com 1.10,2014-01-15 12:52:00,
2014-01-15 05:07:00,43.8,43.0,30.54,SW,223,4.0,8.0,95,0.00,,,0.00,0,weatherlink.com 1.10,2014-01-15 13:07:00,
2014-01-15 05:22:00,43.7,43.0,30.54,SSW,207,3.0,11.0,96,0.00,,,0.00,0,weatherlink.com 1.10,2014-01-15 13:22:00,
2014-01-15 05:37:00,43.6,43.0,30.54,South,186,3.0,7.0,96,0.00,,,0.00,0,weatherlink.com 1.10,2014-01-15 13:37:00,
2014-01-15 05:52:00,43.6,43.0,30.55,South,182,3.0,6.0,96,0.00,,,0.00,0,weatherlink.com 1.10,2014-01-15 13:52:00,
2014-01-15 06:07:00,43.7,43.0,30.56,South,190,4.0,5.0,96,0.00,,,0.00,0,weatherlink.com 1.10,2014-01-15 14:07:00,
2014-01-15 06:22:00,43.7,43.0,30.56,SSW,200,2.0,6.0,96,0.00,,,0.00,0,weatherlink.com 1.10,2014-01-15 14:22:00,
2014-01-15 06:37:00,43.6,43.0,30.56,South,181,2.0,4.0,96,0.00,,,0.00,0,weatherlink.com 1.10,2014-01-15 14:37:00,
2014-01-15 06:52:00,43.5,43.0,30.55,SE,132,2.0,5.0,96,0.00,,,0.00,0,weatherlink.com 1.10,2014-01-15 14:52:00,
2014-01-15 07:08:00,43.4,42.0,30.54,SE,143,3.0,5.0,96,0.00,,,0.00,0,weatherlink.com 1.10,2014-01-15 15:08:00,
2014-01-15 07:23:00,43.0,42.0,30.55,SE,130,2.0,3.0,96,0.00,,,0.00,0,weatherlink.com 1.10,2014-01-15 15:23:00,
2014-01-15 07:37:00,42.5,42.0,30.54,SE,136,3.0,4.0,96,0.00,,,0.00,0,weatherlink.com 1.10,2014-01-15 15:37:00,
2014-01-15 07:54:00,42.4,41.0,30.54,SSE,155,2.0,6.0,96,0.00,,,0.00,0,weatherlink.com 1.10,2014-01-15 15:54:00,
2014-01-15 08:08:00,42.4,41.0,30.54,SSW,202,3.0,5.0,96,0.00,,,0.00,5,weatherlink.com 1.10,2014-01-15 16:08:00,
2014-01-15 08:23:00,42.9,42.0,30.54,SW,224,1.0,4.0,96,0.00,,,0.00,16,weatherlink.com 1.10,2014-01-15 16:23:00,
2014-01-15 08:39:00,43.2,42.0,30.56,SW,224,1.0,3.0,95,0.00,,,0.00,37,weatherlink.com 1.10,2014-01-15 16:39:00,
2014-01-15 08:54:00,42.8,41.0,30.57,NNE,16,4.0,4.0,94,0.00,,,0.00,47,weatherlink.com 1.10,2014-01-15 16:54:00,
2014-01-15 09:08:00,42.4,41.0,30.58,NNE,19,0.0,3.0,95,0.00,,,0.00,47,weatherlink.com 1.10,2014-01-15 17:08:00,
2014-01-15 09:23:00,42.4,41.0,30.59,NNE,19,1.0,3.0,95,0.00,,,0.00,76,weatherlink.com 1.10,2014-01-15 17:23:00,
2014-01-15 09:38:00,42.8,42.0,30.58,North,355,3.0,3.0,95,0.00,,,0.00,91,weatherlink.com 1.10,2014-01-15 17:38:00,
2014-01-15 09:54:00,43.1,42.0,30.58,NW,304,0.0,3.0,96,0.00,,,0.00,127,weatherlink.com 1.10,2014-01-15 17:54:00,
2014-01-15 10:10:00,44.3,43.0,30.59,South,175,2.0,4.0,96,0.00,,,0.00,128,weatherlink.com 1.10,2014-01-15 18:10:00,
2014-01-15 10:24:00,44.7,43.0,30.59,SE,130,5.0,5.0,95,0.00,,,0.00,200,weatherlink.com 1.10,2014-01-15 18:24:00,
2014-01-15 10:39:00,45.0,44.0,30.59,SSE,150,0.0,5.0,95,0.00,,,0.00,192,weatherlink.com 1.10,2014-01-15 18:39:00,
2014-01-15 10:54:00,45.5,44.0,30.60,South,169,2.0,6.0,95,0.00,,,0.00,250,weatherlink.com 1.10,2014-01-15 18:54:00,
2014-01-15 11:09:00,45.7,44.0,30.59,SSW,192,4.0,5.0,93,0.00,,,0.00,230,weatherlink.com 1.10,2014-01-15 19:09:00,
2014-01-15 11:25:00,45.9,44.0,30.59,WSW,248,4.0,5.0,92,0.00,,,0.00,338,weatherlink.com 1.10,2014-01-15 19:25:00,
2014-01-15 11:40:00,46.5,44.0,30.58,WSW,250,3.0,5.0,91,0.00,,,0.00,223,weatherlink.com 1.10,2014-01-15 19:40:00,
2014-01-15 11:54:00,46.6,44.0,30.57,WSW,240,0.0,5.0,90,0.00,,,0.00,192,weatherlink.com 1.10,2014-01-15 19:54:00,
2014-01-15 12:10:00,46.7,44.0,30.58,WSW,240,3.0,5.0,90,0.00,,,0.00,181,weatherlink.com 1.10,2014-01-15 20:10:00,
2014-01-15 12:25:00,47.1,44.0,30.57,WSW,238,2.0,5.0,89,0.00,,,0.00,232,weatherlink.com 1.10,2014-01-15 20:25:00,
2014-01-15 12:39:00,47.3,44.0,30.56,SSW,213,5.0,6.0,88,0.00,,,0.00,246,weatherlink.com 1.10,2014-01-15 20:39:00,
2014-01-15 12:56:00,47.8,44.0,30.55,SSW,207,0.0,3.0,87,0.00,,,0.00,230,weatherlink.com 1.10,2014-01-15 20:56:00,
2014-01-15 13:10:00,47.6,44.0,30.55,SSW,207,2.0,4.0,86,0.00,,,0.00,207,weatherlink.com 1.10,2014-01-15 21:10:00,
2014-01-15 13:26:00,47.7,44.0,30.54,SSW,207,0.0,4.0,87,0.00,,,0.00,221,weatherlink.com 1.10,2014-01-15 21:26:00,
2014-01-15 13:41:00,48.5,45.0,30.54,SSW,206,1.0,3.0,87,0.00,,,0.00,227,weatherlink.com 1.10,2014-01-15 21:41:00,
2014-01-15 13:55:00,48.2,45.0,30.54,WNW,300,0.0,5.0,88,0.00,,,0.00,95,weatherlink.com 1.10,2014-01-15 21:55:00,
2014-01-15 14:11:00,47.6,44.0,30.53,North,5,0.0,5.0,88,0.00,,,0.00,84,weatherlink.com 1.10,2014-01-15 22:11:00,
2014-01-15 14:26:00,47.5,45.0,30.53,NNW,344,1.0,3.0,89,0.00,,,0.00,74,weatherlink.com 1.10,2014-01-15 22:26:00,
2014-01-15 14:42:00,47.4,44.0,30.54,NNW,342,2.0,5.0,89,0.00,,,0.00,58,weatherlink.com 1.10,2014-01-15 22:42:00,
2014-01-15 14:56:00,47.5,45.0,30.54,NNE,19,4.0,6.0,89,0.00,,,0.00,77,weatherlink.com 1.10,2014-01-15 22:56:00,
2014-01-15 15:11:00,47.0,44.0,30.54,NE,38,1.0,7.0,89,0.00,,,0.00,56,weatherlink.com 1.10,2014-01-15 23:11:00,
2014-01-15 15:26:00,46.5,44.0,30.54,NNE,30,2.0,4.0,89,0.00,,,0.00,95,weatherlink.com 1.10,2014-01-15 23:26:00,
2014-01-15 15:41:00,47.0,44.0,30.54,NNE,30,0.0,3.0,89,0.00,,,0.00,72,weatherlink.com 1.10,2014-01-15 23:41:00,
2014-01-15 15:55:00,47.1,44.0,30.54,NNE,30,0.0,2.0,87,0.00,,,0.00,40,weatherlink.com 1.10,2014-01-15 23:55:00,
2014-01-15 16:12:00,46.7,43.0,30.53,NNE,30,1.0,2.0,88,0.00,,,0.00,25,weatherlink.com 1.10,2014-01-16 00:12:00,
2014-01-15 16:26:00,46.1,43.0,30.53,NNE,30,0.0,2.0,90,0.00,,,0.00,16,weatherlink.com 1.10,2014-01-16 00:26:00,
2014-01-15 16:41:00,45.6,43.0,30.53,NNE,30,2.0,3.0,90,0.00,,,0.00,5,weatherlink.com 1.10,2014-01-16 00:41:00,
2014-01-15 16:56:00,45.2,43.0,30.53,NNE,26,1.0,2.0,91,0.00,,,0.00,0,weatherlink.com 1.10,2014-01-16 00:56:00,
2014-01-15 17:11:00,44.2,42.0,30.53,NNE,24,1.0,3.0,91,0.00,,,0.00,0,weatherlink.com 1.10,2014-01-16 01:11:00,
2014-01-15 17:27:00,44.3,42.0,30.53,NW,321,1.0,5.0,93,0.00,,,0.00,0,weatherlink.com 1.10,2014-01-16 01:27:00,
2014-01-15 17:41:00,44.3,42.0,30.53,NW,306,2.0,6.0,92,0.00,,,0.00,0,weatherlink.com 1.10,2014-01-16 01:41:00,
2014-01-15 17:56:00,43.6,42.0,30.52,NW,318,3.0,6.0,92,0.00,,,0.00,0,weatherlink.com 1.10,2014-01-16 01:56:00,
2014-01-15 18:11:00,42.5,41.0,30.52,NW,317,3.0,6.0,93,0.00,,,0.00,0,weatherlink.com 1.10,2014-01-16 02:11:00,
2014-01-15 18:26:00,42.4,41.0,30.53,NW,314,5.0,8.0,94,0.00,,,0.00,0,weatherlink.com 1.10,2014-01-16 02:26:00,
2014-01-15 18:41:00,42.4,41.0,30.53,WNW,290,4.0,6.0,94,0.00,,,0.00,0,weatherlink.com 1.10,2014-01-16 02:41:00,
2014-01-15 18:56:00,42.5,41.0,30.53,NW,319,5.0,6.0,95,0.00,,,0.00,0,weatherlink.com 1.10,2014-01-16 02:56:00,
2014-01-15 19:11:00,42.1,41.0,30.52,NW,312,2.0,5.0,95,0.00,,,0.00,0,weatherlink.com 1.10,2014-01-16 03:11:00,
2014-01-15 19:26:00,42.0,41.0,30.52,NW,318,1.0,4.0,95,0.00,,,0.00,0,weatherlink.com 1.10,2014-01-16 03:26:00,
2014-01-15 19:41:00,41.5,40.0,30.52,NNW,327,1.0,3.0,95,0.00,,,0.00,0,weatherlink.com 1.10,2014-01-16 03:41:00,
2014-01-15 19:56:00,41.9,41.0,30.52,NNW,344,0.0,4.0,96,0.00,,,0.00,0,weatherlink.com 1.10,2014-01-16 03:56:00,
2014-01-15 20:11:00,42.1,41.0,30.52,NNW,334,3.0,3.0,95,0.00,,,0.00,0,weatherlink.com 1.10,2014-01-16 04:11:00,
2014-01-15 20:26:00,42.5,42.0,30.52,NNW,327,2.0,6.0,96,0.00,,,0.00,0,weatherlink.com 1.10,2014-01-16 04:26:00,
2014-01-15 20:41:00,42.8,42.0,30.52,North,351,1.0,4.0,95,0.00,,,0.00,0,weatherlink.com 1.10,2014-01-16 04:41:00,
2014-01-15 20:56:00,42.9,42.0,30.52,North,360,1.0,4.0,95,0.00,,,0.00,0,weatherlink.com 1.10,2014-01-16 04:56:00,
2014-01-15 21:11:00,42.8,42.0,30.53,NNW,339,1.0,5.0,95,0.00,,,0.00,0,weatherlink.com 1.10,2014-01-16 05:11:00,
2014-01-15 21:27:00,42.3,41.0,30.52,NNW,331,3.0,5.0,95,0.00,,,0.00,0,weatherlink.com 1.10,2014-01-16 05:27:00,
2014-01-15 21:42:00,41.9,41.0,30.52,NW,305,1.0,7.0,95,0.00,,,0.00,0,weatherlink.com 1.10,2014-01-16 05:42:00,
2014-01-15 21:57:00,41.7,41.0,30.52,NNW,330,1.0,4.0,96,0.00,,,0.00,0,weatherlink.com 1.10,2014-01-16 05:57:00,
2014-01-15 22:12:00,41.6,40.0,30.52,NW,308,4.0,6.0,95,0.00,,,0.00,0,weatherlink.com 1.10,2014-01-16 06:12:00,
2014-01-15 22:27:00,41.6,41.0,30.52,NNW,341,1.0,6.0,96,0.00,,,0.00,0,weatherlink.com 1.10,2014-01-16 06:27:00,
2014-01-15 22:42:00,41.3,40.0,30.52,NNW,337,2.0,4.0,96,0.00,,,0.00,0,weatherlink.com 1.10,2014-01-16 06:42:00,
2014-01-15 22:57:00,41.5,41.0,30.52,NNE,18,2.0,5.0,96,0.00,,,0.00,0,weatherlink.com 1.10,2014-01-16 06:57:00,
2014-01-15 23:12:00,41.4,40.0,30.51,NNW,348,2.0,6.0,96,0.00,,,0.00,0,weatherlink.com 1.10,2014-01-16 07:12:00,
2014-01-15 23:27:00,41.1,40.0,30.52,NNW,337,1.0,5.0,96,0.00,,,0.00,0,weatherlink.com 1.10,2014-01-16 07:27:00,
2014-01-15 23:42:00,41.1,40.0,30.51,NNW,338,2.0,4.0,96,0.00,,,0.00,0,weatherlink.com 1.10,2014-01-16 07:42:00,
2014-01-15 23:57:00,40.9,40.0,30.51,NW,321,2.0,6.0,96,0.00,,,0.00,0,weatherlink.com 1.10,2014-01-16 07:57:00,